createdAt,value
2022-12-04T00:00:17.182Z,59.68
2022-12-04T00:04:33.409Z,59.74
2022-12-04T00:08:50.425Z,59.31
2022-12-04T00:13:07.057Z,60.10
2022-12-04T00:17:23.228Z,58.89
2022-12-04T00:21:39.442Z,59.54
2022-12-04T00:26:01.674Z,59.00
2022-12-04T00:30:17.953Z,58.65
2022-12-04T00:34:34.111Z,59.48
2022-12-04T00:38:50.448Z,58.70
2022-12-04T00:43:06.517Z,58.71
2022-12-04T00:47:22.681Z,59.14
2022-12-04T00:51:38.956Z,60.08
2022-12-04T00:55:55.120Z,60.11
2022-12-04T01:00:11.469Z,60.01
2022-12-04T01:04:27.730Z,59.15
2022-12-04T01:08:43.846Z,59.45
2022-12-04T01:12:59.949Z,59.70
2022-12-04T01:17:16.118Z,60.15
2022-12-04T01:21:32.641Z,60.48
2022-12-04T01:25:57.344Z,60.76
2022-12-04T01:30:13.873Z,60.65
2022-12-04T01:34:30.134Z,60.68
2022-12-04T01:38:46.522Z,60.65
2022-12-04T01:43:02.814Z,61.10
2022-12-04T01:47:19.074Z,61.35
2022-12-04T01:51:45.485Z,62.42
2022-12-04T01:56:03.223Z,63.05
2022-12-04T02:00:19.639Z,62.93
2022-12-04T02:04:36.663Z,63.51
2022-12-04T02:08:53.262Z,62.38
2022-12-04T02:13:54.728Z,61.84
2022-12-04T02:18:30.201Z,62.16
2022-12-04T02:23:05.218Z,64.10
2022-12-04T02:27:41.562Z,65.15
2022-12-04T02:32:05.653Z,65.94
2022-12-04T02:36:28.788Z,64.20
2022-12-04T02:40:48.343Z,64.00
2022-12-04T02:45:15.920Z,63.58
2022-12-04T02:49:44.800Z,63.88
2022-12-04T02:54:06.052Z,63.73
2022-12-04T02:58:31.859Z,63.99
2022-12-04T03:02:50.170Z,63.26
2022-12-04T03:07:33.225Z,64.55
2022-12-04T03:11:58.639Z,63.44
2022-12-04T03:16:23.819Z,63.32
2022-12-04T03:20:40.710Z,63.65
2022-12-04T03:24:57.682Z,63.71
2022-12-04T03:29:35.994Z,64.17
2022-12-04T03:33:56.537Z,63.11
2022-12-04T03:38:28.156Z,63.13
2022-12-04T03:42:53.061Z,62.74
2022-12-04T03:47:30.231Z,63.21
2022-12-04T03:51:53.991Z,63.84
2022-12-04T03:56:19.198Z,63.70
2022-12-04T04:00:38.481Z,62.95
2022-12-04T04:04:58.205Z,63.66
2022-12-04T04:09:18.902Z,62.42
2022-12-04T04:14:00.010Z,62.96
2022-12-04T04:18:34.991Z,63.35
2022-12-04T04:23:13.533Z,63.08
2022-12-04T04:27:29.737Z,62.60
2022-12-04T04:31:51.798Z,63.62
2022-12-04T04:36:44.141Z,63.51
2022-12-04T04:41:42.694Z,64.64
2022-12-04T04:46:06.567Z,64.42
2022-12-04T04:50:23.228Z,63.80
2022-12-04T04:54:40.053Z,64.23
2022-12-04T04:58:56.275Z,64.40
2022-12-04T05:03:12.570Z,64.72
2022-12-04T05:07:28.809Z,64.97
2022-12-04T05:11:45.061Z,63.84
2022-12-04T05:16:03.808Z,64.46
2022-12-04T05:20:20.197Z,64.42
2022-12-04T05:24:36.473Z,63.42
2022-12-04T05:28:52.662Z,63.76
2022-12-04T05:33:10.344Z,63.69
2022-12-04T05:37:26.646Z,63.68
2022-12-04T05:41:42.812Z,63.02
2022-12-04T05:46:07.135Z,62.33
2022-12-04T05:50:23.337Z,62.30
2022-12-04T05:54:39.706Z,62.50
2022-12-04T05:58:55.865Z,63.12
2022-12-04T06:03:12.133Z,62.96
2022-12-04T06:07:28.360Z,63.97
2022-12-04T06:11:44.794Z,63.85
2022-12-04T06:16:01.003Z,63.34
2022-12-04T06:20:17.346Z,63.75
2022-12-04T06:24:33.548Z,64.01
2022-12-04T06:28:49.986Z,63.12
2022-12-04T06:33:06.164Z,64.02
2022-12-04T06:37:24.698Z,63.69
2022-12-04T06:41:41.087Z,65.28
2022-12-04T06:46:08.793Z,63.93
2022-12-04T06:50:25.203Z,63.93
2022-12-04T06:54:41.624Z,63.64
2022-12-04T06:59:00.577Z,63.22
2022-12-04T07:03:16.818Z,63.86
2022-12-04T07:07:33.038Z,64.00
2022-12-04T07:11:49.386Z,63.27
2022-12-04T07:16:08.077Z,64.01
2022-12-04T07:20:24.569Z,64.58
2022-12-04T07:24:40.812Z,63.74
2022-12-04T07:28:57.863Z,64.17
2022-12-04T07:33:14.500Z,64.21
2022-12-04T07:37:30.823Z,63.07
2022-12-04T07:41:47.034Z,62.62
2022-12-04T07:46:24.348Z,62.52
2022-12-04T07:50:40.594Z,62.66
2022-12-04T07:54:56.772Z,63.02
2022-12-04T07:59:13.114Z,62.55
2022-12-04T08:03:29.455Z,63.38
2022-12-04T08:07:45.711Z,61.84
2022-12-04T08:12:01.933Z,62.02
2022-12-04T08:16:18.135Z,62.88
2022-12-04T08:20:34.373Z,61.71
2022-12-04T08:24:50.491Z,58.84
2022-12-04T08:29:06.913Z,57.62
2022-12-04T08:33:23.079Z,57.16
2022-12-04T08:37:39.278Z,57.96
2022-12-04T08:41:57.176Z,55.74
2022-12-04T08:46:16.323Z,54.86
2022-12-04T08:50:32.590Z,55.06
2022-12-04T08:54:50.576Z,56.37
2022-12-04T08:59:06.893Z,56.25
2022-12-04T09:03:29.159Z,54.45
2022-12-04T09:07:46.841Z,54.40
2022-12-04T09:12:03.058Z,54.46
2022-12-04T09:16:21.827Z,55.25
2022-12-04T09:20:38.326Z,55.48
2022-12-04T09:24:54.435Z,54.42
2022-12-04T09:29:12.298Z,54.75
2022-12-04T09:33:28.849Z,55.33
2022-12-04T09:37:44.958Z,54.92
2022-12-04T09:42:04.305Z,54.75
2022-12-04T09:46:45.396Z,55.18
2022-12-04T09:51:03.277Z,58.91
2022-12-04T09:55:54.198Z,53.57
2022-12-04T10:00:15.033Z,53.51
2022-12-04T10:04:31.514Z,51.16
2022-12-04T10:09:06.634Z,50.65
2022-12-04T10:13:40.095Z,51.07
2022-12-04T10:18:06.471Z,50.87
2022-12-04T10:22:37.913Z,51.27
2022-12-04T10:26:56.644Z,52.05
2022-12-04T10:31:16.978Z,51.46
2022-12-04T10:35:35.316Z,49.78
2022-12-04T10:40:31.727Z,49.19
2022-12-04T10:44:47.987Z,48.29
2022-12-04T10:49:09.736Z,49.16
2022-12-04T10:53:32.677Z,48.76
2022-12-04T10:57:48.872Z,48.45
2022-12-04T11:02:24.833Z,48.11
2022-12-04T11:06:41.063Z,48.50
2022-12-04T11:11:17.104Z,47.70
2022-12-04T11:15:36.758Z,47.02
2022-12-04T11:20:24.536Z,46.98
2022-12-04T11:24:42.916Z,46.62
2022-12-04T11:29:01.669Z,46.70
2022-12-04T11:33:30.169Z,45.95
2022-12-04T11:37:55.839Z,46.07
2022-12-04T11:42:44.197Z,44.70
2022-12-04T11:47:02.681Z,44.15
2022-12-04T11:51:43.147Z,44.40
2022-12-04T11:56:02.263Z,44.70
2022-12-04T12:00:19.950Z,43.33
2022-12-04T12:04:54.204Z,44.96
2022-12-04T12:09:31.560Z,45.42
2022-12-04T12:13:56.817Z,44.70
2022-12-04T12:18:47.153Z,46.20
2022-12-04T12:23:36.813Z,45.42
2022-12-04T12:28:16.189Z,45.38
2022-12-04T12:32:41.381Z,46.91
2022-12-04T12:37:01.067Z,45.85
2022-12-04T12:41:39.103Z,45.81
2022-12-04T12:45:56.749Z,45.62
2022-12-04T12:50:21.426Z,46.59
2022-12-04T12:54:44.452Z,46.98
2022-12-04T12:59:03.854Z,48.73
2022-12-04T13:03:47.380Z,46.82
2022-12-04T13:08:23.264Z,49.25
2022-12-04T13:12:57.227Z,47.86
2022-12-04T13:17:21.213Z,46.47
2022-12-04T13:21:44.177Z,46.17
2022-12-04T13:26:14.626Z,46.89
2022-12-04T13:30:52.363Z,45.74
2022-12-04T13:35:21.238Z,45.09
2022-12-04T13:40:09.167Z,45.61
2022-12-04T13:44:28.945Z,44.50
2022-12-04T13:48:45.181Z,41.13
2022-12-04T13:53:02.019Z,39.77
2022-12-04T13:57:22.284Z,39.33
2022-12-04T14:01:41.337Z,41.24
2022-12-04T14:06:00.292Z,43.67
2022-12-04T14:10:16.435Z,44.47
2022-12-04T14:14:56.795Z,46.16
2022-12-04T14:19:33.817Z,47.20
2022-12-04T14:23:50.378Z,46.99
2022-12-04T14:28:42.135Z,48.27
2022-12-04T14:33:32.012Z,48.46
2022-12-04T14:38:15.573Z,48.55
2022-12-04T14:42:40.343Z,49.48
2022-12-04T14:47:04.354Z,49.85
2022-12-04T14:51:34.529Z,50.88
2022-12-04T14:56:07.800Z,50.79
2022-12-04T15:00:25.052Z,50.82
2022-12-04T15:04:46.198Z,51.41
2022-12-04T15:09:23.404Z,51.88
2022-12-04T15:13:41.296Z,52.42
2022-12-04T15:18:17.057Z,52.50
2022-12-04T15:22:33.250Z,53.24
2022-12-04T15:26:50.418Z,53.83
2022-12-04T15:31:10.756Z,53.05
2022-12-04T15:35:33.522Z,52.00
2022-12-04T15:39:52.880Z,51.95
2022-12-04T15:44:29.643Z,52.26
2022-12-04T15:48:48.033Z,52.43
2022-12-04T15:53:17.684Z,53.01
2022-12-04T15:57:40.191Z,53.14
2022-12-04T16:02:00.273Z,52.74
2022-12-04T16:06:26.639Z,52.63
2022-12-04T16:10:42.918Z,53.52
2022-12-04T16:15:02.058Z,53.51
2022-12-04T16:19:33.382Z,53.44
2022-12-04T16:23:50.472Z,53.99
2022-12-04T16:28:06.928Z,54.63
2022-12-04T16:32:30.003Z,54.66
2022-12-04T16:36:47.218Z,54.27
2022-12-04T16:41:05.900Z,55.05
2022-12-04T16:45:33.751Z,54.84
2022-12-04T16:49:52.844Z,55.68
2022-12-04T16:54:12.225Z,55.86
2022-12-04T16:58:28.353Z,57.25
2022-12-04T17:02:45.635Z,56.53
2022-12-04T17:07:01.876Z,56.52
2022-12-04T17:11:18.745Z,56.94
2022-12-04T17:15:36.432Z,56.78
2022-12-04T17:19:52.602Z,56.17
2022-12-04T17:24:09.077Z,56.15
2022-12-04T17:28:25.187Z,56.76
2022-12-04T17:32:41.406Z,56.68
2022-12-04T17:36:57.776Z,56.73
2022-12-04T17:41:16.037Z,57.30
2022-12-04T17:45:32.286Z,58.13
2022-12-04T17:49:48.713Z,58.00
2022-12-04T17:54:05.987Z,58.01
2022-12-04T17:58:22.303Z,58.30
2022-12-04T18:02:40.296Z,58.01
2022-12-04T18:06:56.970Z,57.63
2022-12-04T18:11:13.477Z,58.53
2022-12-04T18:15:29.712Z,57.51
2022-12-04T18:19:45.946Z,57.80
2022-12-04T18:24:04.196Z,58.64
2022-12-04T18:28:20.328Z,58.19
2022-12-04T18:32:36.610Z,59.08
2022-12-04T18:36:52.950Z,58.42
2022-12-04T18:41:11.770Z,58.90
2022-12-04T18:45:28.027Z,58.15
2022-12-04T18:49:44.339Z,59.61
2022-12-04T18:54:03.897Z,58.76
2022-12-04T18:58:23.721Z,58.93
2022-12-04T19:02:40.457Z,58.79
2022-12-04T19:06:57.060Z,59.38
2022-12-04T19:11:15.598Z,60.12
2022-12-04T19:15:31.881Z,59.22
2022-12-04T19:19:48.341Z,59.76
2022-12-04T19:24:04.665Z,59.55
2022-12-04T19:28:20.903Z,58.90
2022-12-04T19:32:37.018Z,59.35
2022-12-04T19:36:55.205Z,59.30
2022-12-04T19:41:17.163Z,60.71
2022-12-04T19:45:33.440Z,62.32
2022-12-04T19:49:49.658Z,62.35
2022-12-04T19:54:11.707Z,62.86
2022-12-04T19:58:31.575Z,62.92
2022-12-04T20:02:47.820Z,62.05
2022-12-04T20:07:04.241Z,61.72
2022-12-04T20:11:20.775Z,62.72
2022-12-04T20:15:37.609Z,62.71
2022-12-04T20:19:53.964Z,65.03
2022-12-04T20:24:12.672Z,62.68
2022-12-04T20:28:28.812Z,62.45
2022-12-04T20:32:45.001Z,62.70
2022-12-04T20:37:01.238Z,61.41
2022-12-04T20:41:18.919Z,60.98
2022-12-04T20:45:35.146Z,61.02
2022-12-04T20:49:51.352Z,61.32
2022-12-04T20:54:08.969Z,60.69
2022-12-04T20:58:25.144Z,61.45
2022-12-04T21:02:43.610Z,60.74
2022-12-04T21:06:59.835Z,61.22
2022-12-04T21:11:16.018Z,61.26
2022-12-04T21:15:50.950Z,62.10
2022-12-04T21:20:09.432Z,61.75
2022-12-04T21:24:30.519Z,60.94
2022-12-04T21:28:46.979Z,60.86
2022-12-04T21:33:03.166Z,61.54
2022-12-04T21:37:19.597Z,61.54
2022-12-04T21:41:54.670Z,61.24
2022-12-04T21:46:10.924Z,61.15
2022-12-04T21:50:28.297Z,61.07
2022-12-04T21:54:46.721Z,61.68
2022-12-04T21:59:03.155Z,62.30
2022-12-04T22:03:19.724Z,62.31
2022-12-04T22:07:35.988Z,62.65
2022-12-04T22:11:52.577Z,61.87
2022-12-04T22:16:15.243Z,62.15
2022-12-04T22:20:31.684Z,63.22
2022-12-04T22:24:48.628Z,62.71
2022-12-04T22:29:33.725Z,62.61
2022-12-04T22:33:43.481Z,62.14
2022-12-04T22:37:59.737Z,62.08
2022-12-04T22:42:15.876Z,62.61
2022-12-04T22:46:32.412Z,61.33
2022-12-04T22:51:03.922Z,61.82
2022-12-04T22:55:20.151Z,61.12
2022-12-04T22:59:36.251Z,62.08
2022-12-04T23:03:53.458Z,61.00
2022-12-04T23:08:10.208Z,61.41
2022-12-04T23:12:27.814Z,62.14
2022-12-04T23:16:44.489Z,60.95
2022-12-04T23:21:09.040Z,60.67
2022-12-04T23:25:25.603Z,61.08
2022-12-04T23:29:53.042Z,61.31
2022-12-04T23:34:09.941Z,61.78
2022-12-04T23:38:27.680Z,61.45
2022-12-04T23:42:44.000Z,61.77
2022-12-04T23:47:00.311Z,61.52
2022-12-04T23:51:19.371Z,62.21
2022-12-04T23:55:35.652Z,63.07
2022-12-04T23:59:54.900Z,61.70
